METAR / TAF
Helsinki-Vantaa
HELSINKI/VANTAA
Metar
EFHK 141950Z 35004KT 9999 SCT003 BKN028 M07/M07 Q1036 TEMPO BKN003

19:50 UTC

Wind: 350° 4kt

Visibility: 9999 m

Sky: SCT 300 ft

Temp: -7 deg C / 19.4 deg F

Dewpoint: -7 deg C / 19.4 deg F

Pressure: 1036 hPa

TAF
TAF EFHK 141725Z 1418/1518 02004KT 9999 FEW008 BKN025 PROB30 TEMPO 1418/1502 BKN012
Helsinki, Malmi
HELSINKI/MALMI
Turku
TURKU/ABO
Metar
EFTU 141950Z AUTO 05004KT 9999 OVC009/// M06/M07 Q1036

19:50 UTC

Wind: 50° 4kt

Visibility: 9999 m

Sky: OVC 900 ft

Temp: -6 deg C / 21.2 deg F

Dewpoint: -7 deg C / 19.4 deg F

Pressure: 1036 hPa

TAF
TAF EFTU 141725Z 1418/1518 08005KT 9999 OVC012 TEMPO 1418/1509 OVC009 PROB30 1500/1506 1200 BR
Tampere, Pirkkala
TAMPERE/PIRKKALA
Metar
EFTP 141950Z AUTO VRB02KT 9999 OVC005 M07/M07 Q1036

19:50 UTC

Wind: ° 2kt

Visibility: 9999 m

Sky: OVC 500 ft

Temp: -7 deg C / 19.4 deg F

Dewpoint: -7 deg C / 19.4 deg F

Pressure: 1036 hPa

TAF
TAF EFTP 141725Z 1418/1518 VRB02KT 9999 OVC008 TEMPO 1421/1515 BKN012
Maarianhamina
MARIEHAMN/ALAND
Metar
EFMA 141950Z AUTO VRB02KT 9999 OVC020 M02/M05 Q1035

19:50 UTC

Wind: ° 2kt

Visibility: 9999 m

Sky: OVC 2000 ft

Temp: -2 deg C / 28.4 deg F

Dewpoint: -5 deg C / 23 deg F

Pressure: 1035 hPa

TAF
TAF EFMA 141725Z 1418/1503 VRB02KT 9999 OVC015
Pori
PORI (MIL/CIV)
Metar
EFPO 141950Z AUTO VRB02KT 9999 OVC007/// M05/M06 Q1036

19:50 UTC

Wind: ° 2kt

Visibility: 9999 m

Sky: OVC 700 ft

Temp: -5 deg C / 23 deg F

Dewpoint: -6 deg C / 21.2 deg F

Pressure: 1036 hPa

Vaasa
VAASA
Metar
EFVA 141950Z AUTO 18006KT 9999 FEW019/// BKN022/// M03/M05 Q1034

19:50 UTC

Wind: 180° 6kt

Visibility: 9999 m

Sky: FEW 1900 ft

Temp: -3 deg C / 26.6 deg F

Dewpoint: -5 deg C / 23 deg F

Pressure: 1034 hPa

TAF
TAF EFVA 141728Z 1418/1518 18007KT 9999 BKN020 TEMPO 1418/1422 BKN013 PROB40 1422/1511 BKN009
Kruunupyy
KRUUNUPYY
Metar
EFKK 141950Z AUTO 17009KT 9999 OVC018 M03/M04 Q1034

19:50 UTC

Wind: 170° 9kt

Visibility: 9999 m

Sky: OVC 1800 ft

Temp: -3 deg C / 26.6 deg F

Dewpoint: -4 deg C / 24.8 deg F

Pressure: 1034 hPa

TAF
TAF EFKK 141728Z 1418/1424 18006KT 9999 OVC018 PROB30 1418/1424 BKN009
Jyväskylä, Tikkakoski
JYVASKYLA (MIL/C
Metar
EFJY 141950Z AUTO 34002KT 9999 OVC004 M07/M08 Q1035

19:50 UTC

Wind: 340° 2kt

Visibility: 9999 m

Sky: OVC 400 ft

Temp: -7 deg C / 19.4 deg F

Dewpoint: -8 deg C / 17.6 deg F

Pressure: 1035 hPa

TAF
TAF EFJY 141725Z 1418/1518 VRB02KT 9999 OVC005 TEMPO 1418/1421 7000 -SG BKN004 TEMPO 1421/1508 BKN010 TEMPO 1508/1515 BKN015
Kuopio
KUOPIO (MIL/CIV)
Metar
EFKU 141950Z AUTO 25006KT 1900 BR OVC005 M07/M08 Q1035

19:50 UTC

Wind: 250° 6kt

Visibility: 1900 m

Sky: OVC 500 ft

Temp: -7 deg C / 19.4 deg F

Dewpoint: -8 deg C / 17.6 deg F

Pressure: 1035 hPa

TAF
TAF AMD EFKU 141823Z 1418/1518 28002KT 9999 -SG BKN005 TEMPO 1418/1424 2500 -FZDZ OVC003 TEMPO 1506/1518 BKN012
Joensuu
JOENSUU
Metar
EFJO 141950Z 28004KT 230V320 9000 OVC003 M07/M08 Q1034

19:50 UTC

Wind: 280° 4kt

Visibility: 9000 m

Sky: OVC 300 ft

Temp: -7 deg C / 19.4 deg F

Dewpoint: -8 deg C / 17.6 deg F

Pressure: 1034 hPa

TAF
TAF EFJO 141728Z 1418/1424 28003KT 9999 OVC005 TEMPO 1418/1424 7000 -SG OVC003
Halli
HALLI (FIN-AFB)
Metar
EFHA 141950Z AUTO VRB03KT 100V190 6000 OVC003 M07/M07 Q1035

19:50 UTC

Wind: ° 3kt

Visibility: 6000 m

Sky: OVC 300 ft

Temp: -7 deg C / 19.4 deg F

Dewpoint: -7 deg C / 19.4 deg F

Pressure: 1035 hPa

Utti
UTTI (FIN-AFB)
Metar
EFUT 141950Z AUTO 04003KT 9999 OVC008 M06/M07 Q1035

19:50 UTC

Wind: 40° 3kt

Visibility: 9999 m

Sky: OVC 800 ft

Temp: -6 deg C / 21.2 deg F

Dewpoint: -7 deg C / 19.4 deg F

Pressure: 1035 hPa

Mikkeli
MIKKELI
Metar
EFMI 141950Z AUTO 23002KT 9999 OVC005 M07/M08 Q1036

19:50 UTC

Wind: 230° 2kt

Visibility: 9999 m

Sky: OVC 500 ft

Temp: -7 deg C / 19.4 deg F

Dewpoint: -8 deg C / 17.6 deg F

Pressure: 1036 hPa

Savonlinna
SAVONLINNA (AUT)
Metar
EFSA 141950Z AUTO 22002KT 9999 OVC008 M07/M09 Q1035

19:50 UTC

Wind: 220° 2kt

Visibility: 9999 m

Sky: OVC 800 ft

Temp: -7 deg C / 19.4 deg F

Dewpoint: -9 deg C / 15.8 deg F

Pressure: 1035 hPa

TAF
TAF EFSA 141423Z 1415/1419 VRB02KT 9999 OVC013 TEMPO 1415/1419 BKN008
Lappeenranta
LAPPEENRANTA
Metar
EFLP 141950Z AUTO 01002KT 9999 OVC008 M06/M08 Q1035

19:50 UTC

Wind: 10° 2kt

Visibility: 9999 m

Sky: OVC 800 ft

Temp: -6 deg C / 21.2 deg F

Dewpoint: -8 deg C / 17.6 deg F

Pressure: 1035 hPa

Oulu
OULU/ULEABORG
Metar
EFOU 141950Z AUTO 19006KT 9999 -SN OVC016/// M03/M03 Q1033

19:50 UTC

Wind: 190° 6kt

Visibility: 9999 m

Sky: OVC 1600 ft

Temp: -3 deg C / 26.6 deg F

Dewpoint: -3 deg C / 26.6 deg F

Pressure: 1033 hPa

TAF
TAF EFOU 141728Z 1418/1518 18006KT 9999 -SN BKN015 TEMPO 1418/1507 BKN011 TEMPO 1507/1518 4000 -SG BKN007 PROB40 1507/1518 -FZDZ
Kemi
KEMI
Metar
EFKE 141950Z AUTO 00000KT 9999 -SHSN OVC008 M04/M05 Q1031

19:50 UTC

Wind: 0° 0kt

Visibility: 9999 m

Sky: OVC 800 ft

Temp: -4 deg C / 24.8 deg F

Dewpoint: -5 deg C / 23 deg F

Pressure: 1031 hPa

TAF
TAF EFKE 141728Z 1418/1424 24004KT 9999 OVC006 TEMPO 1418/1424 4000 -SG BKN004
Rovaniemi
ROVANIEMI (CIV/M
Metar
EFRO 141950Z AUTO 19005KT 9999 -SHSN FEW002 BKN005 M07/M08 Q1030

19:50 UTC

Wind: 190° 5kt

Visibility: 9999 m

Sky: FEW 200 ft

Temp: -7 deg C / 19.4 deg F

Dewpoint: -8 deg C / 17.6 deg F

Pressure: 1030 hPa

TAF
TAF EFRO 141728Z 1418/1518 19007KT 9999 OVC003 PROB30 1418/1504 0300 FZFG VV001 TEMPO 1504/1518 4000 -SG BKN005 PROB40 1504/1518 -FZDZ
Enontekiö
ENONTEKIO
Metar
EFET 141950Z AUTO 25001KT 9999 OVC002 M21/M23 Q1027

19:50 UTC

Wind: 250° 1kt

Visibility: 9999 m

Sky: OVC 200 ft

Temp: -21 deg C / -5.8 deg F

Dewpoint: -23 deg C / -9.4 deg F

Pressure: 1027 hPa

Ivalo
IVALO
Metar
EFIV 141950Z 22009KT CAVOK M14/M16 Q1028

19:50 UTC

Wind: 220° 9kt

Visibility:

Sky:

Temp: -14 deg C / 6.8 deg F

Dewpoint: -16 deg C / 3.2 deg F

Pressure: 1028 hPa

TAF
TAF EFIV 141728Z 1418/1421 22009KT CAVOK
Kittilä
KITTILA
Metar
EFKT 141950Z VRB01KT CAVOK M22/M25 Q1029

19:50 UTC

Wind: ° 1kt

Visibility:

Sky:

Temp: -22 deg C / -7.6 deg F

Dewpoint: -25 deg C / -13 deg F

Pressure: 1029 hPa

TAF
TAF EFKT 141728Z 1418/1422 19002KT CAVOK BECMG 1419/1421 BKN003
Kuusamo
KUUSAMO
Metar
EFKS 141950Z AUTO 27008KT 230V300 9999 OVC004 M05/M06 Q1030

19:50 UTC

Wind: 270° 8kt

Visibility: 9999 m

Sky: OVC 400 ft

Temp: -5 deg C / 23 deg F

Dewpoint: -6 deg C / 21.2 deg F

Pressure: 1030 hPa

TAF
TAF EFKS 141728Z 1418/1423 27009KT 9999 OVC005 TEMPO 1418/1423 7000 -SG BKN004
Kajaani
KAJAANI
Metar
EFKI 141950Z AUTO 22006KT 9999 FZUP OVC006 M05/M06 Q1033

19:50 UTC

Wind: 220° 6kt

Visibility: 9999 m

Sky: OVC 600 ft

Temp: -5 deg C / 23 deg F

Dewpoint: -6 deg C / 21.2 deg F

Pressure: 1033 hPa

TAF
TAF EFKI 141728Z 1418/1422 20006KT 9999 OVC006 TEMPO 1418/1422 7000 -FZDZ OVC004
Varkaus
VARKAUS
Seinäjoki
SEINAJOKI-ILMAJO
Metar
EFSI 141950Z AUTO 15005KT 120V180 9999 OVC011 M05/M06 Q1035

19:50 UTC

Wind: 150° 5kt

Visibility: 9999 m

Sky: OVC 1100 ft

Temp: -5 deg C / 23 deg F

Dewpoint: -6 deg C / 21.2 deg F

Pressure: 1035 hPa

Print Friendly, PDF & Email